ASN logo
Last updated: 28 September 2021
Status:Voorlopig
Datum:zaterdag 9 mei 2015
Tijd:12:57
Type:Silhouette image of generic A400 model; specific model in this crash may look slightly different
Airbus A400M Atlas
Luchtvaartmaatschappij:Airbus Industrie
Registratie: EC-403
Constructienummer: 023
Bouwjaar: 2015-05-09 ()
Aantal vlieguren:0
Aantal vluchten:0
Motoren: 4 Europrop TP400-D6
Bemanning:slachtoffers: 4 / inzittenden: 6
Passagiers:slachtoffers: 0 / inzittenden: 0
Totaal:slachtoffers: 4 / inzittenden: 6
Schade: Vernield
Gevolgen: Written off (damaged beyond repair)
Plaats:ca 4 km NE of Sevilla Airport (SVQ) (   Spanje)
Fase: Nadering (APR)
Soort vlucht:Test
Vliegveld van vertrek:Sevilla Airport (SVQ/LEZL), Spanje
Vliegveld van aankomst:Sevilla Airport (SVQ/LEZL), Spanje
Beschrijving:
An Airbus A400M Atlas military transport plane was destroyed when it crashed near Sevilla Airport (SVQ), Spain during a test flight. Two of the six crew members survived the accident.
The aircraft took off from runway 09 at 12:54 hours local time. The pilot, co-pilot, a mechanic and three engineers were conducting a test flight from Sevilla Airport (SVQ). The aircraft was built at the Airbus plant at Sevilla and was intended for the Turkish Air Force. It was the maiden flight after assembly.
Shortly after takeoff three of the four engines became stuck at high power. Initially the three engines did not respond to the crew’s attempts to control the power setting in the normal way. Pilots then succeeded in reducing power only after selecting the thrust levers to idle. Then the engines remained stuck at idle. In an attempt to return to the airport, the aircraft struck powerlines, impacted a field and burned.
An Airbus official after the accident stated that engine control software was incorrectly installed during final assembly of the aircraft. This led to engine failure and the resulting crash.

Bronnen:
» Flightradar24
» El Pais
» Airbus Defence and Space

METAR Weather report:
10:30 UTC / 12:30 local time:
LEZL 091030Z 07010KT 030V090 CAVOK 27/09 Q1022 NOSIG

11:00 UTC / 13:00 local time:
LEZL 091100Z 05009KT CAVOK 28/09 Q1022 NOSIG


Foto's

Add your photo of this accident or aircraft

Video, social media

Kaart

This information is not presented as the Flight Safety Foundation or the Aviation Safety Network’s opinion as to the cause of the accident. It is preliminary and is based on the facts as they are known at this time.
languages: languages

Share